Swastika, Canada
Current Conditions -  °F | °C
As of 3:36 PM on Thursday 29 Jan 2015 (Local Time) from CYXR Reporting Station
Light Snow Light Snow  
Wind Chill: 19°   Ceiling: 2500
Heat Index: 19°   Visibility: 1.2mi
Dew Point: 19°   Wind: 3mph
Humidity: 100%   Direction: 100°E
Pressure: 29.7"   Gusts: NA
Location:  48.1°N, 80.1°W
Report Text: CYXR 292036Z AUTO 10003KT 1 1/4SM -SN OVC025 M07/M07 A2970 RMK SLP077
Loading
Personal Weather Stations






























Interactive Weather Map New forecast layout! Learn more

10-Day Weather Forecast

Advertisements
Track Severe Weather on mobile